Terminal Aerodrome Forecast
Issued by NWS

Home | Current Version | Previous Version | Text Only | Print | Product List | Glossary On
Versions: 1 2 3 4 5 6 7 8 9 10 11 12 13 14 15 16 17 18 19 20 21 22 23 24 25
000
FTUS41 KBOX 300541
TAFBED
TAF
KBED 300541Z 3006/3106 18004KT P6SM -SN OVC025
     FM300800 16004KT 2SM -SN OVC010
     FM301500 VRB03KT 1SM -SN OVC015
     FM302200 32008KT 2SM -SN OVC015
     FM310200 32014G27KT 2SM -SN OVC015=

USA.gov is the U.S. government's official web portal to all federal, state and local government web resources and services.